KLAL/LAL METAR and TAF weather

Enter ICAO airport designator
Station Type Date Time Source
KLAL METAR 2019/10/23 19:50 UTC NOAA

KLAL 231950Z 05010KT 10SM SKC 28/17 A3004


Station Type Date Time Source
KLAL Decoded METAR 2019/10/23 19:50 UTC NOAA

Lakeland Regional, FL, United States (KLAL) 27-59N 082-01W
Oct 23, 2019 - 03:50 PM EDT / 2019.10.23 1950 UTC
Wind: from the NE (050 degrees) at 12 MPH (10 KT):0
Visibility: 10 mile(s):0
Sky conditions: clear
Temperature: 82 F (28 C)
Dew Point: 62 F (17 C)
Relative Humidity: 51%
Pressure (altimeter): 30.04 in. Hg (1017 hPa)
ob: KLAL 231950Z 05010KT 10SM SKC 28/17 A3004
cycle: 20

Station Type Date Time Source
KLAL TAF 2019/10/23 18:42 UTC NOAA

TAF KLAL 231739Z 2318/2418 05010KT P6SM FEW035 SCT250
FM240400 06006KT P6SM SCT040 BKN250
FM241500 08010KT P6SM SCT040 BKN250

Example: see airport list